sensor_id;sensor_type;location;lat;lon;timestamp;P1;durP1;ratioP1;P2;durP2;ratioP2
46318;SDS011;32042;50.916;2.926;2023-11-22T00:01:38;13.20;;;11.00;;
46318;SDS011;32042;50.916;2.926;2023-11-22T00:04:04;11.70;;;10.33;;
46318;SDS011;32042;50.916;2.926;2023-11-22T00:06:30;12.67;;;10.67;;
46318;SDS011;32042;50.916;2.926;2023-11-22T00:08:56;14.57;;;11.90;;
46318;SDS011;32042;50.916;2.926;2023-11-22T00:11:22;15.10;;;12.17;;
46318;SDS011;32042;50.916;2.926;2023-11-22T00:13:49;16.13;;;12.43;;
46318;SDS011;32042;50.916;2.926;2023-11-22T00:16:20;13.43;;;11.27;;
46318;SDS011;32042;50.916;2.926;2023-11-22T00:18:46;13.77;;;11.17;;
46318;SDS011;32042;50.916;2.926;2023-11-22T00:21:12;17.40;;;12.70;;
46318;SDS011;32042;50.916;2.926;2023-11-22T00:23:38;15.93;;;11.80;;
46318;SDS011;32042;50.916;2.926;2023-11-22T00:26:04;12.63;;;11.20;;
46318;SDS011;32042;50.916;2.926;2023-11-22T00:28:31;13.30;;;11.07;;
46318;SDS011;32042;50.916;2.926;2023-11-22T00:30:57;14.97;;;12.27;;
46318;SDS011;32042;50.916;2.926;2023-11-22T00:33:23;14.53;;;11.77;;
46318;SDS011;32042;50.916;2.926;2023-11-22T00:35:50;15.80;;;12.07;;
46318;SDS011;32042;50.916;2.926;2023-11-22T00:38:18;14.67;;;11.80;;
46318;SDS011;32042;50.916;2.926;2023-11-22T00:40:44;14.50;;;12.30;;
46318;SDS011;32042;50.916;2.926;2023-11-22T00:43:10;15.47;;;12.50;;
46318;SDS011;32042;50.916;2.926;2023-11-22T00:45:36;17.27;;;12.93;;
46318;SDS011;32042;50.916;2.926;2023-11-22T00:48:02;14.97;;;11.87;;
46318;SDS011;32042;50.916;2.926;2023-11-22T00:50:28;15.03;;;11.57;;
46318;SDS011;32042;50.916;2.926;2023-11-22T00:52:54;15.27;;;11.57;;
46318;SDS011;32042;50.916;2.926;2023-11-22T00:55:21;15.60;;;11.43;;
46318;SDS011;32042;50.916;2.926;2023-11-22T00:57:47;15.83;;;11.53;;
46318;SDS011;32042;50.916;2.926;2023-11-22T01:00:13;14.87;;;11.70;;
46318;SDS011;32042;50.916;2.926;2023-11-22T01:02:40;16.40;;;12.03;;
46318;SDS011;32042;50.916;2.926;2023-11-22T01:05:06;17.30;;;12.37;;
46318;SDS011;32042;50.916;2.926;2023-11-22T01:07:40;15.97;;;11.67;;
46318;SDS011;32042;50.916;2.926;2023-11-22T01:10:06;16.40;;;13.03;;
46318;SDS011;32042;50.916;2.926;2023-11-22T01:12:32;18.63;;;12.83;;
46318;SDS011;32042;50.916;2.926;2023-11-22T01:14:59;18.13;;;12.60;;
46318;SDS011;32042;50.916;2.926;2023-11-22T01:17:25;16.93;;;13.50;;
46318;SDS011;32042;50.916;2.926;2023-11-22T01:19:51;18.73;;;14.03;;
46318;SDS011;32042;50.916;2.926;2023-11-22T01:22:17;18.07;;;12.63;;
46318;SDS011;32042;50.916;2.926;2023-11-22T01:24:43;17.87;;;12.60;;
46318;SDS011;32042;50.916;2.926;2023-11-22T01:27:09;18.33;;;13.30;;
46318;SDS011;32042;50.916;2.926;2023-11-22T01:29:35;21.07;;;13.63;;
46318;SDS011;32042;50.916;2.926;2023-11-22T01:32:01;20.90;;;13.20;;
46318;SDS011;32042;50.916;2.926;2023-11-22T01:34:27;16.97;;;12.87;;
46318;SDS011;32042;50.916;2.926;2023-11-22T01:36:54;19.40;;;13.33;;
46318;SDS011;32042;50.916;2.926;2023-11-22T01:39:20;17.13;;;12.70;;
46318;SDS011;32042;50.916;2.926;2023-11-22T01:41:46;20.87;;;12.97;;
46318;SDS011;32042;50.916;2.926;2023-11-22T01:44:14;19.30;;;13.97;;
46318;SDS011;32042;50.916;2.926;2023-11-22T01:46:40;17.27;;;12.03;;
46318;SDS011;32042;50.916;2.926;2023-11-22T01:49:08;19.67;;;12.73;;
46318;SDS011;32042;50.916;2.926;2023-11-22T01:51:35;14.77;;;11.43;;
46318;SDS011;32042;50.916;2.926;2023-11-22T01:54:01;13.23;;;10.47;;
46318;SDS011;32042;50.916;2.926;2023-11-22T01:56:27;13.70;;;10.97;;
46318;SDS011;32042;50.916;2.926;2023-11-22T01:58:54;18.90;;;11.57;;
46318;SDS011;32042;50.916;2.926;2023-11-22T02:01:21;17.97;;;12.20;;
46318;SDS011;32042;50.916;2.926;2023-11-22T02:03:47;20.50;;;13.07;;
46318;SDS011;32042;50.916;2.926;2023-11-22T02:06:15;19.13;;;12.57;;
46318;SDS011;32042;50.916;2.926;2023-11-22T02:08:41;17.60;;;13.37;;
46318;SDS011;32042;50.916;2.926;2023-11-22T02:11:07;15.03;;;12.27;;
46318;SDS011;32042;50.916;2.926;2023-11-22T02:13:34;18.33;;;12.37;;
46318;SDS011;32042;50.916;2.926;2023-11-22T02:16:00;18.23;;;12.43;;
46318;SDS011;32042;50.916;2.926;2023-11-22T02:18:27;16.93;;;12.07;;
46318;SDS011;32042;50.916;2.926;2023-11-22T02:20:53;18.47;;;12.83;;
46318;SDS011;32042;50.916;2.926;2023-11-22T02:23:19;19.47;;;12.73;;
46318;SDS011;32042;50.916;2.926;2023-11-22T02:25:45;18.63;;;12.83;;
46318;SDS011;32042;50.916;2.926;2023-11-22T02:28:11;17.47;;;12.23;;
46318;SDS011;32042;50.916;2.926;2023-11-22T02:30:38;14.83;;;11.23;;
46318;SDS011;32042;50.916;2.926;2023-11-22T02:33:05;14.33;;;11.23;;
46318;SDS011;32042;50.916;2.926;2023-11-22T02:35:32;15.00;;;10.40;;
46318;SDS011;32042;50.916;2.926;2023-11-22T02:37:59;13.70;;;11.00;;
46318;SDS011;32042;50.916;2.926;2023-11-22T02:40:26;13.37;;;11.43;;
46318;SDS011;32042;50.916;2.926;2023-11-22T02:42:55;14.57;;;12.23;;
46318;SDS011;32042;50.916;2.926;2023-11-22T02:45:31;16.23;;;11.63;;
46318;SDS011;32042;50.916;2.926;2023-11-22T02:47:58;16.13;;;11.37;;
46318;SDS011;32042;50.916;2.926;2023-11-22T02:50:27;13.90;;;10.43;;
46318;SDS011;32042;50.916;2.926;2023-11-22T02:52:54;13.97;;;10.97;;
46318;SDS011;32042;50.916;2.926;2023-11-22T02:55:20;13.50;;;10.57;;
46318;SDS011;32042;50.916;2.926;2023-11-22T02:57:46;15.80;;;11.37;;
46318;SDS011;32042;50.916;2.926;2023-11-22T03:00:12;18.37;;;12.17;;
46318;SDS011;32042;50.916;2.926;2023-11-22T03:02:39;15.80;;;12.33;;
46318;SDS011;32042;50.916;2.926;2023-11-22T03:05:07;15.10;;;11.10;;
46318;SDS011;32042;50.916;2.926;2023-11-22T03:07:34;18.37;;;12.93;;
46318;SDS011;32042;50.916;2.926;2023-11-22T03:10:01;16.97;;;12.40;;
46318;SDS011;32042;50.916;2.926;2023-11-22T03:12:27;21.30;;;13.60;;
46318;SDS011;32042;50.916;2.926;2023-11-22T03:14:53;16.83;;;12.77;;
46318;SDS011;32042;50.916;2.926;2023-11-22T03:17:23;16.47;;;12.30;;
46318;SDS011;32042;50.916;2.926;2023-11-22T03:19:49;18.60;;;13.63;;
46318;SDS011;32042;50.916;2.926;2023-11-22T03:22:16;21.87;;;13.87;;
46318;SDS011;32042;50.916;2.926;2023-11-22T03:24:42;19.27;;;13.33;;
46318;SDS011;32042;50.916;2.926;2023-11-22T03:27:08;18.67;;;13.73;;
46318;SDS011;32042;50.916;2.926;2023-11-22T03:29:35;20.37;;;14.13;;
46318;SDS011;32042;50.916;2.926;2023-11-22T03:32:01;15.80;;;12.87;;
46318;SDS011;32042;50.916;2.926;2023-11-22T03:34:27;21.47;;;13.87;;
46318;SDS011;32042;50.916;2.926;2023-11-22T03:36:53;23.40;;;13.50;;
46318;SDS011;32042;50.916;2.926;2023-11-22T03:39:19;17.10;;;13.57;;
46318;SDS011;32042;50.916;2.926;2023-11-22T03:41:45;21.53;;;13.53;;
46318;SDS011;32042;50.916;2.926;2023-11-22T03:44:11;17.70;;;13.70;;
46318;SDS011;32042;50.916;2.926;2023-11-22T03:46:37;20.10;;;13.60;;
46318;SDS011;32042;50.916;2.926;2023-11-22T03:49:04;18.27;;;13.33;;
46318;SDS011;32042;50.916;2.926;2023-11-22T03:51:32;16.97;;;12.97;;
46318;SDS011;32042;50.916;2.926;2023-11-22T03:53:58;19.90;;;12.67;;
46318;SDS011;32042;50.916;2.926;2023-11-22T03:56:24;20.00;;;13.57;;
46318;SDS011;32042;50.916;2.926;2023-11-22T03:58:50;18.60;;;13.07;;
46318;SDS011;32042;50.916;2.926;2023-11-22T04:01:16;20.30;;;12.40;;
46318;SDS011;32042;50.916;2.926;2023-11-22T04:03:43;16.40;;;12.83;;
46318;SDS011;32042;50.916;2.926;2023-11-22T04:06:09;13.70;;;11.73;;
46318;SDS011;32042;50.916;2.926;2023-11-22T04:08:35;17.60;;;12.60;;
46318;SDS011;32042;50.916;2.926;2023-11-22T04:11:03;14.97;;;11.57;;
46318;SDS011;32042;50.916;2.926;2023-11-22T04:13:30;18.07;;;12.57;;
46318;SDS011;32042;50.916;2.926;2023-11-22T04:15:56;16.70;;;13.30;;
46318;SDS011;32042;50.916;2.926;2023-11-22T04:18:22;16.63;;;12.80;;
46318;SDS011;32042;50.916;2.926;2023-11-22T04:20:49;17.33;;;13.37;;
46318;SDS011;32042;50.916;2.926;2023-11-22T04:23:16;18.23;;;12.97;;
46318;SDS011;32042;50.916;2.926;2023-11-22T04:25:42;20.13;;;13.33;;
46318;SDS011;32042;50.916;2.926;2023-11-22T04:28:08;16.30;;;12.87;;
46318;SDS011;32042;50.916;2.926;2023-11-22T04:30:35;18.63;;;12.93;;
46318;SDS011;32042;50.916;2.926;2023-11-22T04:33:01;16.67;;;12.23;;
46318;SDS011;32042;50.916;2.926;2023-11-22T04:35:27;17.27;;;13.33;;
46318;SDS011;32042;50.916;2.926;2023-11-22T04:37:53;20.53;;;14.70;;
46318;SDS011;32042;50.916;2.926;2023-11-22T04:40:23;21.37;;;14.07;;
46318;SDS011;32042;50.916;2.926;2023-11-22T04:42:49;18.67;;;14.00;;
46318;SDS011;32042;50.916;2.926;2023-11-22T04:45:15;18.40;;;13.40;;
46318;SDS011;32042;50.916;2.926;2023-11-22T04:47:41;19.50;;;14.07;;
46318;SDS011;32042;50.916;2.926;2023-11-22T04:50:07;20.83;;;13.50;;
46318;SDS011;32042;50.916;2.926;2023-11-22T04:52:34;21.50;;;13.70;;
46318;SDS011;32042;50.916;2.926;2023-11-22T04:55:00;18.60;;;13.63;;
46318;SDS011;32042;50.916;2.926;2023-11-22T04:57:26;18.40;;;13.67;;
46318;SDS011;32042;50.916;2.926;2023-11-22T04:59:52;18.57;;;13.00;;
46318;SDS011;32042;50.916;2.926;2023-11-22T05:02:19;18.93;;;12.77;;
46318;SDS011;32042;50.916;2.926;2023-11-22T05:04:45;19.40;;;12.83;;
46318;SDS011;32042;50.916;2.926;2023-11-22T05:07:15;17.93;;;12.60;;
46318;SDS011;32042;50.916;2.926;2023-11-22T05:09:41;15.33;;;11.63;;
46318;SDS011;32042;50.916;2.926;2023-11-22T05:12:10;16.97;;;12.10;;
46318;SDS011;32042;50.916;2.926;2023-11-22T05:14:37;17.63;;;13.23;;
46318;SDS011;32042;50.916;2.926;2023-11-22T05:17:03;18.50;;;13.23;;
46318;SDS011;32042;50.916;2.926;2023-11-22T05:19:30;18.70;;;12.13;;
46318;SDS011;32042;50.916;2.926;2023-11-22T05:21:56;24.63;;;13.50;;
46318;SDS011;32042;50.916;2.926;2023-11-22T05:24:23;22.13;;;15.27;;
46318;SDS011;32042;50.916;2.926;2023-11-22T05:26:49;22.30;;;13.33;;
46318;SDS011;32042;50.916;2.926;2023-11-22T05:29:15;19.43;;;14.23;;
46318;SDS011;32042;50.916;2.926;2023-11-22T05:31:41;17.53;;;13.07;;
46318;SDS011;32042;50.916;2.926;2023-11-22T05:34:07;18.67;;;14.03;;
46318;SDS011;32042;50.916;2.926;2023-11-22T05:36:33;23.17;;;14.70;;
46318;SDS011;32042;50.916;2.926;2023-11-22T05:38:59;20.30;;;13.60;;
46318;SDS011;32042;50.916;2.926;2023-11-22T05:41:25;21.50;;;14.87;;
46318;SDS011;32042;50.916;2.926;2023-11-22T05:43:52;17.37;;;13.83;;
46318;SDS011;32042;50.916;2.926;2023-11-22T05:46:21;16.23;;;13.60;;
46318;SDS011;32042;50.916;2.926;2023-11-22T05:48:52;20.43;;;14.43;;
46318;SDS011;32042;50.916;2.926;2023-11-22T05:51:19;17.40;;;13.10;;
46318;SDS011;32042;50.916;2.926;2023-11-22T05:53:45;16.13;;;12.33;;
46318;SDS011;32042;50.916;2.926;2023-11-22T05:56:11;16.83;;;12.23;;
46318;SDS011;32042;50.916;2.926;2023-11-22T05:58:37;16.43;;;12.73;;
46318;SDS011;32042;50.916;2.926;2023-11-22T06:01:10;16.43;;;13.00;;
46318;SDS011;32042;50.916;2.926;2023-11-22T06:03:39;14.60;;;12.50;;
46318;SDS011;32042;50.916;2.926;2023-11-22T06:06:05;19.27;;;12.40;;
46318;SDS011;32042;50.916;2.926;2023-11-22T06:08:32;17.73;;;13.27;;
46318;SDS011;32042;50.916;2.926;2023-11-22T06:10:58;16.93;;;12.93;;
46318;SDS011;32042;50.916;2.926;2023-11-22T06:13:24;41.43;;;34.93;;
46318;SDS011;32042;50.916;2.926;2023-11-22T06:15:51;16.50;;;14.27;;
46318;SDS011;32042;50.916;2.926;2023-11-22T06:18:17;22.73;;;14.30;;
46318;SDS011;32042;50.916;2.926;2023-11-22T06:20:44;19.07;;;13.80;;
46318;SDS011;32042;50.916;2.926;2023-11-22T06:23:10;22.00;;;14.60;;
46318;SDS011;32042;50.916;2.926;2023-11-22T06:25:36;21.47;;;13.77;;
46318;SDS011;32042;50.916;2.926;2023-11-22T06:28:02;19.30;;;13.47;;
46318;SDS011;32042;50.916;2.926;2023-11-22T06:30:28;17.57;;;12.20;;
46318;SDS011;32042;50.916;2.926;2023-11-22T06:32:55;17.93;;;12.17;;
46318;SDS011;32042;50.916;2.926;2023-11-22T06:35:21;17.53;;;12.67;;
46318;SDS011;32042;50.916;2.926;2023-11-22T06:37:48;23.17;;;14.20;;
46318;SDS011;32042;50.916;2.926;2023-11-22T06:40:14;19.03;;;13.30;;
46318;SDS011;32042;50.916;2.926;2023-11-22T06:42:41;18.27;;;12.63;;
46318;SDS011;32042;50.916;2.926;2023-11-22T06:45:08;18.47;;;13.20;;
46318;SDS011;32042;50.916;2.926;2023-11-22T06:47:41;20.20;;;14.90;;
46318;SDS011;32042;50.916;2.926;2023-11-22T06:50:08;23.70;;;12.80;;
46318;SDS011;32042;50.916;2.926;2023-11-22T06:52:36;15.93;;;12.77;;
46318;SDS011;32042;50.916;2.926;2023-11-22T06:55:03;17.63;;;12.30;;
46318;SDS011;32042;50.916;2.926;2023-11-22T06:57:29;16.20;;;13.10;;
46318;SDS011;32042;50.916;2.926;2023-11-22T06:59:56;16.77;;;12.17;;
46318;SDS011;32042;50.916;2.926;2023-11-22T07:02:22;17.37;;;12.20;;
46318;SDS011;32042;50.916;2.926;2023-11-22T07:04:48;14.63;;;11.00;;
46318;SDS011;32042;50.916;2.926;2023-11-22T07:07:14;14.27;;;11.30;;
46318;SDS011;32042;50.916;2.926;2023-11-22T07:09:44;12.13;;;10.43;;
46318;SDS011;32042;50.916;2.926;2023-11-22T07:12:11;13.80;;;9.93;;
46318;SDS011;32042;50.916;2.926;2023-11-22T07:14:37;11.27;;;9.07;;
46318;SDS011;32042;50.916;2.926;2023-11-22T07:17:04;15.63;;;10.53;;
46318;SDS011;32042;50.916;2.926;2023-11-22T07:19:32;11.40;;;9.80;;
46318;SDS011;32042;50.916;2.926;2023-11-22T07:22:03;19.93;;;12.73;;
46318;SDS011;32042;50.916;2.926;2023-11-22T07:24:29;22.00;;;11.40;;
46318;SDS011;32042;50.916;2.926;2023-11-22T07:26:59;18.07;;;11.80;;
46318;SDS011;32042;50.916;2.926;2023-11-22T07:29:26;17.73;;;11.60;;
46318;SDS011;32042;50.916;2.926;2023-11-22T07:31:54;19.63;;;12.97;;
46318;SDS011;32042;50.916;2.926;2023-11-22T07:34:22;20.73;;;10.57;;
46318;SDS011;32042;50.916;2.926;2023-11-22T07:36:48;23.93;;;12.30;;
46318;SDS011;32042;50.916;2.926;2023-11-22T07:39:15;15.20;;;11.43;;
46318;SDS011;32042;50.916;2.926;2023-11-22T07:41:44;16.77;;;10.93;;
46318;SDS011;32042;50.916;2.926;2023-11-22T07:44:13;15.70;;;10.07;;
46318;SDS011;32042;50.916;2.926;2023-11-22T07:46:41;27.30;;;11.97;;
46318;SDS011;32042;50.916;2.926;2023-11-22T07:49:09;17.63;;;10.53;;
46318;SDS011;32042;50.916;2.926;2023-11-22T07:51:35;18.30;;;12.43;;
46318;SDS011;32042;50.916;2.926;2023-11-22T07:54:02;16.03;;;11.73;;
46318;SDS011;32042;50.916;2.926;2023-11-22T07:56:28;18.00;;;11.73;;
46318;SDS011;32042;50.916;2.926;2023-11-22T07:58:57;22.93;;;13.40;;
46318;SDS011;32042;50.916;2.926;2023-11-22T08:01:23;25.27;;;12.70;;
46318;SDS011;32042;50.916;2.926;2023-11-22T08:03:50;23.47;;;15.03;;
46318;SDS011;32042;50.916;2.926;2023-11-22T08:06:17;30.37;;;21.97;;
46318;SDS011;32042;50.916;2.926;2023-11-22T08:08:43;25.60;;;16.53;;
46318;SDS011;32042;50.916;2.926;2023-11-22T08:11:11;22.87;;;14.90;;
46318;SDS011;32042;50.916;2.926;2023-11-22T08:13:43;23.37;;;15.03;;
46318;SDS011;32042;50.916;2.926;2023-11-22T08:16:10;23.80;;;14.70;;
46318;SDS011;32042;50.916;2.926;2023-11-22T08:18:39;22.60;;;13.37;;
46318;SDS011;32042;50.916;2.926;2023-11-22T08:21:08;28.73;;;15.93;;
46318;SDS011;32042;50.916;2.926;2023-11-22T08:23:34;20.77;;;14.13;;
46318;SDS011;32042;50.916;2.926;2023-11-22T08:26:01;23.40;;;15.30;;
46318;SDS011;32042;50.916;2.926;2023-11-22T08:28:27;30.00;;;15.70;;
46318;SDS011;32042;50.916;2.926;2023-11-22T08:30:54;24.23;;;16.53;;
46318;SDS011;32042;50.916;2.926;2023-11-22T08:33:21;37.00;;;17.33;;
46318;SDS011;32042;50.916;2.926;2023-11-22T08:35:47;25.13;;;16.70;;
46318;SDS011;32042;50.916;2.926;2023-11-22T08:38:17;31.97;;;17.50;;
46318;SDS011;32042;50.916;2.926;2023-11-22T08:40:44;28.27;;;18.60;;
46318;SDS011;32042;50.916;2.926;2023-11-22T08:43:10;27.97;;;16.87;;
46318;SDS011;32042;50.916;2.926;2023-11-22T08:45:36;30.00;;;18.07;;
46318;SDS011;32042;50.916;2.926;2023-11-22T08:48:02;26.40;;;16.93;;
46318;SDS011;32042;50.916;2.926;2023-11-22T08:50:28;28.00;;;17.70;;
46318;SDS011;32042;50.916;2.926;2023-11-22T08:52:54;25.40;;;16.47;;
46318;SDS011;32042;50.916;2.926;2023-11-22T08:55:23;26.80;;;18.27;;
46318;SDS011;32042;50.916;2.926;2023-11-22T08:57:49;25.10;;;16.80;;
46318;SDS011;32042;50.916;2.926;2023-11-22T09:00:16;27.97;;;16.93;;
46318;SDS011;32042;50.916;2.926;2023-11-22T09:02:47;32.70;;;18.97;;
46318;SDS011;32042;50.916;2.926;2023-11-22T09:05:13;25.90;;;17.67;;
46318;SDS011;32042;50.916;2.926;2023-11-22T09:07:42;28.27;;;18.33;;
46318;SDS011;32042;50.916;2.926;2023-11-22T09:10:09;31.33;;;18.77;;
46318;SDS011;32042;50.916;2.926;2023-11-22T09:12:39;27.50;;;18.57;;
46318;SDS011;32042;50.916;2.926;2023-11-22T09:15:12;28.53;;;18.33;;
46318;SDS011;32042;50.916;2.926;2023-11-22T09:17:41;28.90;;;18.57;;
46318;SDS011;32042;50.916;2.926;2023-11-22T09:22:44;27.60;;;17.87;;
46318;SDS011;32042;50.916;2.926;2023-11-22T09:25:13;30.93;;;19.27;;
46318;SDS011;32042;50.916;2.926;2023-11-22T09:27:41;29.30;;;19.10;;
46318;SDS011;32042;50.916;2.926;2023-11-22T09:30:07;31.13;;;18.87;;
46318;SDS011;32042;50.916;2.926;2023-11-22T09:32:43;35.20;;;19.80;;
46318;SDS011;32042;50.916;2.926;2023-11-22T09:35:09;32.60;;;19.20;;
46318;SDS011;32042;50.916;2.926;2023-11-22T09:37:35;27.93;;;19.50;;
46318;SDS011;32042;50.916;2.926;2023-11-22T09:40:03;29.97;;;18.53;;
46318;SDS011;32042;50.916;2.926;2023-11-22T09:42:34;29.17;;;19.73;;
46318;SDS011;32042;50.916;2.926;2023-11-22T09:45:00;30.60;;;19.17;;
46318;SDS011;32042;50.916;2.926;2023-11-22T09:47:26;25.17;;;18.50;;
46318;SDS011;32042;50.916;2.926;2023-11-22T09:49:54;34.27;;;18.20;;
46318;SDS011;32042;50.916;2.926;2023-11-22T09:52:22;31.13;;;19.83;;
46318;SDS011;32042;50.916;2.926;2023-11-22T09:54:51;28.57;;;19.73;;
46318;SDS011;32042;50.916;2.926;2023-11-22T09:57:17;29.50;;;19.20;;
46318;SDS011;32042;50.916;2.926;2023-11-22T09:59:45;30.07;;;19.17;;
46318;SDS011;32042;50.916;2.926;2023-11-22T10:02:14;28.47;;;19.00;;
46318;SDS011;32042;50.916;2.926;2023-11-22T10:04:40;26.93;;;17.97;;
46318;SDS011;32042;50.916;2.926;2023-11-22T10:07:06;25.17;;;17.33;;
46318;SDS011;32042;50.916;2.926;2023-11-22T10:09:34;26.60;;;18.33;;
46318;SDS011;32042;50.916;2.926;2023-11-22T10:12:02;25.73;;;18.10;;
46318;SDS011;32042;50.916;2.926;2023-11-22T10:14:29;26.55;;;18.42;;
46318;SDS011;32042;50.916;2.926;2023-11-22T10:16:59;30.47;;;22.43;;
46318;SDS011;32042;50.916;2.926;2023-11-22T10:19:25;26.43;;;19.30;;
46318;SDS011;32042;50.916;2.926;2023-11-22T10:22:05;31.17;;;20.87;;
46318;SDS011;32042;50.916;2.926;2023-11-22T10:24:34;32.10;;;20.50;;
46318;SDS011;32042;50.916;2.926;2023-11-22T10:27:01;28.53;;;19.93;;
46318;SDS011;32042;50.916;2.926;2023-11-22T10:29:27;28.03;;;19.40;;
46318;SDS011;32042;50.916;2.926;2023-11-22T10:31:53;27.53;;;18.57;;
46318;SDS011;32042;50.916;2.926;2023-11-22T10:34:23;25.07;;;18.13;;
46318;SDS011;32042;50.916;2.926;2023-11-22T10:36:49;27.43;;;19.10;;
46318;SDS011;32042;50.916;2.926;2023-11-22T10:39:19;33.33;;;18.47;;
46318;SDS011;32042;50.916;2.926;2023-11-22T10:41:45;28.20;;;18.60;;
46318;SDS011;32042;50.916;2.926;2023-11-22T10:44:12;27.70;;;17.97;;
46318;SDS011;32042;50.916;2.926;2023-11-22T10:46:40;23.80;;;17.93;;
46318;SDS011;32042;50.916;2.926;2023-11-22T10:49:06;22.60;;;17.30;;
46318;SDS011;32042;50.916;2.926;2023-11-22T10:51:33;23.40;;;16.80;;
46318;SDS011;32042;50.916;2.926;2023-11-22T10:54:00;23.60;;;17.57;;
46318;SDS011;32042;50.916;2.926;2023-11-22T10:56:40;26.87;;;17.83;;
46318;SDS011;32042;50.916;2.926;2023-11-22T10:59:26;31.23;;;18.90;;
46318;SDS011;32042;50.916;2.926;2023-11-22T11:01:53;24.23;;;17.20;;
46318;SDS011;32042;50.916;2.926;2023-11-22T11:04:33;24.63;;;17.03;;
46318;SDS011;32042;50.916;2.926;2023-11-22T11:07:02;28.50;;;16.47;;
46318;SDS011;32042;50.916;2.926;2023-11-22T11:09:29;21.40;;;16.07;;
46318;SDS011;32042;50.916;2.926;2023-11-22T11:11:57;19.63;;;15.10;;
46318;SDS011;32042;50.916;2.926;2023-11-22T11:14:23;22.03;;;15.10;;
46318;SDS011;32042;50.916;2.926;2023-11-22T11:16:50;19.50;;;15.67;;
46318;SDS011;32042;50.916;2.926;2023-11-22T11:19:19;19.77;;;16.00;;
46318;SDS011;32042;50.916;2.926;2023-11-22T11:21:49;22.10;;;15.73;;
46318;SDS011;32042;50.916;2.926;2023-11-22T11:24:15;19.47;;;15.67;;
46318;SDS011;32042;50.916;2.926;2023-11-22T11:26:41;23.60;;;15.00;;
46318;SDS011;32042;50.916;2.926;2023-11-22T11:29:29;17.07;;;14.13;;
46318;SDS011;32042;50.916;2.926;2023-11-22T11:31:55;17.63;;;13.60;;
46318;SDS011;32042;50.916;2.926;2023-11-22T11:34:23;18.17;;;13.63;;
46318;SDS011;32042;50.916;2.926;2023-11-22T11:36:53;20.07;;;13.67;;
46318;SDS011;32042;50.916;2.926;2023-11-22T11:39:24;16.53;;;13.33;;
46318;SDS011;32042;50.916;2.926;2023-11-22T11:41:51;16.20;;;11.90;;
46318;SDS011;32042;50.916;2.926;2023-11-22T11:44:17;15.73;;;12.13;;
46318;SDS011;32042;50.916;2.926;2023-11-22T11:46:44;19.73;;;12.13;;
46318;SDS011;32042;50.916;2.926;2023-11-22T11:49:13;13.50;;;11.23;;
46318;SDS011;32042;50.916;2.926;2023-11-22T11:51:40;12.90;;;11.50;;
46318;SDS011;32042;50.916;2.926;2023-11-22T11:54:07;16.30;;;13.00;;
46318;SDS011;32042;50.916;2.926;2023-11-22T11:56:34;16.17;;;13.27;;
46318;SDS011;32042;50.916;2.926;2023-11-22T11:59:00;16.73;;;12.33;;
46318;SDS011;32042;50.916;2.926;2023-11-22T12:01:27;12.43;;;11.13;;
46318;SDS011;32042;50.916;2.926;2023-11-22T12:03:57;12.80;;;10.70;;
46318;SDS011;32042;50.916;2.926;2023-11-22T12:06:23;10.83;;;9.20;;
46318;SDS011;32042;50.916;2.926;2023-11-22T12:08:49;9.93;;;8.67;;
46318;SDS011;32042;50.916;2.926;2023-11-22T12:11:15;10.17;;;8.43;;
46318;SDS011;32042;50.916;2.926;2023-11-22T12:13:43;9.20;;;7.93;;
46318;SDS011;32042;50.916;2.926;2023-11-22T12:16:15;12.50;;;8.50;;
46318;SDS011;32042;50.916;2.926;2023-11-22T12:18:42;8.80;;;7.57;;
46318;SDS011;32042;50.916;2.926;2023-11-22T12:21:08;8.23;;;7.43;;
46318;SDS011;32042;50.916;2.926;2023-11-22T12:23:41;8.90;;;8.00;;
46318;SDS011;32042;50.916;2.926;2023-11-22T12:26:14;9.53;;;8.17;;
46318;SDS011;32042;50.916;2.926;2023-11-22T12:28:40;8.63;;;7.43;;
46318;SDS011;32042;50.916;2.926;2023-11-22T12:31:07;9.53;;;6.53;;
46318;SDS011;32042;50.916;2.926;2023-11-22T12:33:34;8.47;;;6.83;;
46318;SDS011;32042;50.916;2.926;2023-11-22T12:36:01;8.13;;;6.70;;
46318;SDS011;32042;50.916;2.926;2023-11-22T12:38:29;7.37;;;6.47;;
46318;SDS011;32042;50.916;2.926;2023-11-22T12:40:58;10.10;;;6.57;;
46318;SDS011;32042;50.916;2.926;2023-11-22T12:43:24;7.63;;;6.33;;
46318;SDS011;32042;50.916;2.926;2023-11-22T12:46:00;6.87;;;6.23;;
46318;SDS011;32042;50.916;2.926;2023-11-22T12:48:26;7.93;;;6.87;;
46318;SDS011;32042;50.916;2.926;2023-11-22T12:50:55;7.63;;;6.70;;
46318;SDS011;32042;50.916;2.926;2023-11-22T12:53:21;8.90;;;7.00;;
46318;SDS011;32042;50.916;2.926;2023-11-22T12:55:48;9.70;;;8.13;;
46318;SDS011;32042;50.916;2.926;2023-11-22T12:58:22;9.30;;;8.00;;
46318;SDS011;32042;50.916;2.926;2023-11-22T13:00:49;9.50;;;8.57;;
46318;SDS011;32042;50.916;2.926;2023-11-22T13:03:16;10.03;;;8.80;;
46318;SDS011;32042;50.916;2.926;2023-11-22T13:05:42;10.93;;;9.80;;
46318;SDS011;32042;50.916;2.926;2023-11-22T13:08:09;10.43;;;8.87;;
46318;SDS011;32042;50.916;2.926;2023-11-22T13:13:11;12.87;;;10.40;;
46318;SDS011;32042;50.916;2.926;2023-11-22T13:15:37;10.63;;;9.53;;
46318;SDS011;32042;50.916;2.926;2023-11-22T13:18:05;12.07;;;10.43;;
46318;SDS011;32042;50.916;2.926;2023-11-22T13:20:32;10.70;;;9.03;;
46318;SDS011;32042;50.916;2.926;2023-11-22T13:22:58;10.00;;;8.27;;
46318;SDS011;32042;50.916;2.926;2023-11-22T13:25:25;10.90;;;7.83;;
46318;SDS011;32042;50.916;2.926;2023-11-22T13:27:51;9.63;;;8.13;;
46318;SDS011;32042;50.916;2.926;2023-11-22T13:30:18;9.40;;;8.23;;
46318;SDS011;32042;50.916;2.926;2023-11-22T13:32:48;9.10;;;7.83;;
46318;SDS011;32042;50.916;2.926;2023-11-22T13:35:14;9.70;;;8.47;;
46318;SDS011;32042;50.916;2.926;2023-11-22T13:37:42;9.50;;;7.20;;
46318;SDS011;32042;50.916;2.926;2023-11-22T13:40:12;7.77;;;6.93;;
46318;SDS011;32042;50.916;2.926;2023-11-22T13:45:09;7.80;;;7.00;;
46318;SDS011;32042;50.916;2.926;2023-11-22T13:47:35;8.20;;;7.40;;
46318;SDS011;32042;50.916;2.926;2023-11-22T13:50:01;8.33;;;7.43;;
46318;SDS011;32042;50.916;2.926;2023-11-22T13:52:28;7.20;;;6.47;;
46318;SDS011;32042;50.916;2.926;2023-11-22T13:54:54;9.80;;;7.63;;
46318;SDS011;32042;50.916;2.926;2023-11-22T13:57:22;9.03;;;6.97;;
46318;SDS011;32042;50.916;2.926;2023-11-22T13:59:48;7.57;;;6.43;;
46318;SDS011;32042;50.916;2.926;2023-11-22T14:02:14;8.27;;;6.40;;
46318;SDS011;32042;50.916;2.926;2023-11-22T14:04:41;9.17;;;6.73;;
46318;SDS011;32042;50.916;2.926;2023-11-22T14:07:07;7.80;;;6.30;;
46318;SDS011;32042;50.916;2.926;2023-11-22T14:09:33;6.97;;;5.73;;
46318;SDS011;32042;50.916;2.926;2023-11-22T14:12:03;6.33;;;5.70;;
46318;SDS011;32042;50.916;2.926;2023-11-22T14:14:29;6.50;;;5.83;;
46318;SDS011;32042;50.916;2.926;2023-11-22T14:16:55;7.03;;;6.33;;
46318;SDS011;32042;50.916;2.926;2023-11-22T14:19:21;8.33;;;6.13;;
46318;SDS011;32042;50.916;2.926;2023-11-22T14:21:47;7.03;;;6.13;;
46318;SDS011;32042;50.916;2.926;2023-11-22T14:24:13;5.30;;;4.63;;
46318;SDS011;32042;50.916;2.926;2023-11-22T14:26:39;6.70;;;4.57;;
46318;SDS011;32042;50.916;2.926;2023-11-22T14:29:05;9.30;;;5.57;;
46318;SDS011;32042;50.916;2.926;2023-11-22T14:31:32;5.23;;;4.73;;
46318;SDS011;32042;50.916;2.926;2023-11-22T14:33:58;5.47;;;4.80;;